sensor_id;sensor_type;location;lat;lon;timestamp;temperature;humidity
48994;DHT22;34804;49.214;12.276;2023-09-19T00:00:39;15.90;91.50
48994;DHT22;34804;49.214;12.276;2023-09-19T00:03:07;15.90;91.50
48994;DHT22;34804;49.214;12.276;2023-09-19T00:05:36;15.90;91.30
48994;DHT22;34804;49.214;12.276;2023-09-19T00:08:05;16.00;91.30
48994;DHT22;34804;49.214;12.276;2023-09-19T00:10:33;16.00;91.30
48994;DHT22;34804;49.214;12.276;2023-09-19T00:13:03;16.00;91.30
48994;DHT22;34804;49.214;12.276;2023-09-19T00:15:39;16.00;91.30
48994;DHT22;34804;49.214;12.276;2023-09-19T00:18:07;15.90;91.30
48994;DHT22;34804;49.214;12.276;2023-09-19T00:20:36;16.00;91.40
48994;DHT22;34804;49.214;12.276;2023-09-19T00:23:04;16.00;91.20
48994;DHT22;34804;49.214;12.276;2023-09-19T00:25:31;16.00;91.10
48994;DHT22;34804;49.214;12.276;2023-09-19T00:28:02;16.00;91.00
48994;DHT22;34804;49.214;12.276;2023-09-19T00:30:30;16.10;90.80
48994;DHT22;34804;49.214;12.276;2023-09-19T00:32:57;16.20;90.10
48994;DHT22;34804;49.214;12.276;2023-09-19T00:35:24;16.20;90.00
48994;DHT22;34804;49.214;12.276;2023-09-19T00:37:52;16.20;90.10
48994;DHT22;34804;49.214;12.276;2023-09-19T00:40:19;16.20;90.10
48994;DHT22;34804;49.214;12.276;2023-09-19T00:42:48;16.20;90.30
48994;DHT22;34804;49.214;12.276;2023-09-19T00:45:17;16.30;90.40
48994;DHT22;34804;49.214;12.276;2023-09-19T00:47:47;16.10;90.50
48994;DHT22;34804;49.214;12.276;2023-09-19T00:50:19;16.10;90.80
48994;DHT22;34804;49.214;12.276;2023-09-19T00:52:53;16.10;91.00
48994;DHT22;34804;49.214;12.276;2023-09-19T00:55:24;16.10;91.00
48994;DHT22;34804;49.214;12.276;2023-09-19T00:57:51;16.10;91.00
48994;DHT22;34804;49.214;12.276;2023-09-19T01:00:19;16.10;91.00
48994;DHT22;34804;49.214;12.276;2023-09-19T01:02:47;16.10;91.20
48994;DHT22;34804;49.214;12.276;2023-09-19T01:05:15;16.20;90.70
48994;DHT22;34804;49.214;12.276;2023-09-19T01:07:42;16.10;90.80
48994;DHT22;34804;49.214;12.276;2023-09-19T01:10:17;16.10;90.60
48994;DHT22;34804;49.214;12.276;2023-09-19T01:13:13;16.10;90.40
48994;DHT22;34804;49.214;12.276;2023-09-19T01:16:03;16.10;90.50
48994;DHT22;34804;49.214;12.276;2023-09-19T01:18:54;16.10;90.60
48994;DHT22;34804;49.214;12.276;2023-09-19T01:21:50;16.00;91.00
48994;DHT22;34804;49.214;12.276;2023-09-19T01:29:50;16.20;90.60
48994;DHT22;34804;49.214;12.276;2023-09-19T01:32:19;16.20;90.60
48994;DHT22;34804;49.214;12.276;2023-09-19T01:34:54;16.20;90.50
48994;DHT22;34804;49.214;12.276;2023-09-19T01:37:24;16.20;90.50
48994;DHT22;34804;49.214;12.276;2023-09-19T01:40:04;16.20;90.50
48994;DHT22;34804;49.214;12.276;2023-09-19T01:42:44;16.20;90.20
48994;DHT22;34804;49.214;12.276;2023-09-19T01:45:19;16.30;89.90
48994;DHT22;34804;49.214;12.276;2023-09-19T01:47:53;16.30;89.90
48994;DHT22;34804;49.214;12.276;2023-09-19T01:50:42;16.30;90.00
48994;DHT22;34804;49.214;12.276;2023-09-19T01:53:28;16.30;89.70
48994;DHT22;34804;49.214;12.276;2023-09-19T01:55:57;16.30;90.10
48994;DHT22;34804;49.214;12.276;2023-09-19T01:58:39;16.20;90.40
48994;DHT22;34804;49.214;12.276;2023-09-19T02:01:11;16.20;90.20
48994;DHT22;34804;49.214;12.276;2023-09-19T02:03:43;16.30;89.70
48994;DHT22;34804;49.214;12.276;2023-09-19T02:06:14;16.30;89.60
48994;DHT22;34804;49.214;12.276;2023-09-19T02:08:42;16.40;88.90
48994;DHT22;34804;49.214;12.276;2023-09-19T02:11:09;16.50;88.90
48994;DHT22;34804;49.214;12.276;2023-09-19T02:13:36;16.40;89.00
48994;DHT22;34804;49.214;12.276;2023-09-19T02:16:04;16.40;89.20
48994;DHT22;34804;49.214;12.276;2023-09-19T02:18:33;16.40;89.30
48994;DHT22;34804;49.214;12.276;2023-09-19T02:21:03;16.40;89.30
48994;DHT22;34804;49.214;12.276;2023-09-19T02:23:30;16.40;89.00
48994;DHT22;34804;49.214;12.276;2023-09-19T02:25:57;16.40;89.10
48994;DHT22;34804;49.214;12.276;2023-09-19T02:28:24;16.40;88.90
48994;DHT22;34804;49.214;12.276;2023-09-19T02:30:56;16.40;89.20
48994;DHT22;34804;49.214;12.276;2023-09-19T02:33:23;16.40;89.40
48994;DHT22;34804;49.214;12.276;2023-09-19T02:35:55;16.30;89.80
48994;DHT22;34804;49.214;12.276;2023-09-19T02:38:25;16.30;89.70
48994;DHT22;34804;49.214;12.276;2023-09-19T02:40:52;16.30;89.70
48994;DHT22;34804;49.214;12.276;2023-09-19T02:43:19;16.30;89.70
48994;DHT22;34804;49.214;12.276;2023-09-19T02:45:46;16.30;89.80
48994;DHT22;34804;49.214;12.276;2023-09-19T02:48:16;16.30;90.00
48994;DHT22;34804;49.214;12.276;2023-09-19T02:50:45;16.30;90.00
48994;DHT22;34804;49.214;12.276;2023-09-19T02:53:12;16.20;90.00
48994;DHT22;34804;49.214;12.276;2023-09-19T02:55:40;16.30;90.00
48994;DHT22;34804;49.214;12.276;2023-09-19T02:58:07;16.20;89.90
48994;DHT22;34804;49.214;12.276;2023-09-19T03:00:41;16.20;90.20
48994;DHT22;34804;49.214;12.276;2023-09-19T03:03:14;16.20;90.20
48994;DHT22;34804;49.214;12.276;2023-09-19T03:05:43;16.10;90.40
48994;DHT22;34804;49.214;12.276;2023-09-19T03:08:14;16.10;90.30
48994;DHT22;34804;49.214;12.276;2023-09-19T03:10:46;16.10;90.50
48994;DHT22;34804;49.214;12.276;2023-09-19T03:13:14;16.10;90.50
48994;DHT22;34804;49.214;12.276;2023-09-19T03:15:43;16.10;90.40
48994;DHT22;34804;49.214;12.276;2023-09-19T03:18:17;16.10;90.20
48994;DHT22;34804;49.214;12.276;2023-09-19T03:20:52;16.10;90.40
48994;DHT22;34804;49.214;12.276;2023-09-19T03:23:22;16.10;90.30
48994;DHT22;34804;49.214;12.276;2023-09-19T03:25:48;16.10;90.40
48994;DHT22;34804;49.214;12.276;2023-09-19T03:28:15;16.10;90.40
48994;DHT22;34804;49.214;12.276;2023-09-19T03:30:43;16.10;90.40
48994;DHT22;34804;49.214;12.276;2023-09-19T03:33:11;16.00;90.30
48994;DHT22;34804;49.214;12.276;2023-09-19T03:35:39;16.10;90.20
48994;DHT22;34804;49.214;12.276;2023-09-19T03:38:06;16.00;90.30
48994;DHT22;34804;49.214;12.276;2023-09-19T03:40:33;16.00;90.60
48994;DHT22;34804;49.214;12.276;2023-09-19T03:43:00;16.00;90.60
48994;DHT22;34804;49.214;12.276;2023-09-19T03:45:28;15.90;90.90
48994;DHT22;34804;49.214;12.276;2023-09-19T03:47:54;15.90;90.80
48994;DHT22;34804;49.214;12.276;2023-09-19T03:50:21;15.90;91.00
48994;DHT22;34804;49.214;12.276;2023-09-19T03:52:48;15.90;91.30
48994;DHT22;34804;49.214;12.276;2023-09-19T03:55:15;15.80;91.20
48994;DHT22;34804;49.214;12.276;2023-09-19T03:57:42;15.80;91.20
48994;DHT22;34804;49.214;12.276;2023-09-19T04:00:09;15.90;90.80
48994;DHT22;34804;49.214;12.276;2023-09-19T04:02:39;15.90;90.70
48994;DHT22;34804;49.214;12.276;2023-09-19T04:05:07;15.90;90.70
48994;DHT22;34804;49.214;12.276;2023-09-19T04:07:34;16.00;90.40
48994;DHT22;34804;49.214;12.276;2023-09-19T04:10:01;16.00;90.60
48994;DHT22;34804;49.214;12.276;2023-09-19T04:12:30;15.90;90.70
48994;DHT22;34804;49.214;12.276;2023-09-19T04:14:57;15.90;90.80
48994;DHT22;34804;49.214;12.276;2023-09-19T04:17:24;15.90;90.90
48994;DHT22;34804;49.214;12.276;2023-09-19T04:19:51;15.90;90.70
48994;DHT22;34804;49.214;12.276;2023-09-19T04:22:18;15.90;90.90
48994;DHT22;34804;49.214;12.276;2023-09-19T04:24:45;15.90;90.80
48994;DHT22;34804;49.214;12.276;2023-09-19T04:27:12;16.00;90.40
48994;DHT22;34804;49.214;12.276;2023-09-19T04:29:41;15.90;90.40
48994;DHT22;34804;49.214;12.276;2023-09-19T04:32:11;15.90;90.40
48994;DHT22;34804;49.214;12.276;2023-09-19T04:34:39;15.90;90.60
48994;DHT22;34804;49.214;12.276;2023-09-19T04:37:06;15.90;90.50
48994;DHT22;34804;49.214;12.276;2023-09-19T04:39:33;15.90;90.20
48994;DHT22;34804;49.214;12.276;2023-09-19T04:42:00;16.10;90.20
48994;DHT22;34804;49.214;12.276;2023-09-19T04:44:28;16.00;90.30
48994;DHT22;34804;49.214;12.276;2023-09-19T04:46:55;16.00;89.90
48994;DHT22;34804;49.214;12.276;2023-09-19T04:49:22;16.10;89.60
48994;DHT22;34804;49.214;12.276;2023-09-19T04:51:49;16.00;89.90
48994;DHT22;34804;49.214;12.276;2023-09-19T04:54:16;16.00;90.00
48994;DHT22;34804;49.214;12.276;2023-09-19T04:56:44;16.00;89.80
48994;DHT22;34804;49.214;12.276;2023-09-19T04:59:11;15.80;90.00
48994;DHT22;34804;49.214;12.276;2023-09-19T05:01:38;15.80;90.20
48994;DHT22;34804;49.214;12.276;2023-09-19T05:04:05;15.70;90.30
48994;DHT22;34804;49.214;12.276;2023-09-19T05:06:32;15.70;90.50
48994;DHT22;34804;49.214;12.276;2023-09-19T05:09:00;15.70;90.50
48994;DHT22;34804;49.214;12.276;2023-09-19T05:11:27;15.70;90.30
48994;DHT22;34804;49.214;12.276;2023-09-19T05:13:57;15.60;90.30
48994;DHT22;34804;49.214;12.276;2023-09-19T05:16:24;15.60;90.50
48994;DHT22;34804;49.214;12.276;2023-09-19T05:18:51;15.70;90.40
48994;DHT22;34804;49.214;12.276;2023-09-19T05:21:18;15.80;90.40
48994;DHT22;34804;49.214;12.276;2023-09-19T05:23:45;15.90;90.10
48994;DHT22;34804;49.214;12.276;2023-09-19T05:26:13;15.90;90.00
48994;DHT22;34804;49.214;12.276;2023-09-19T05:28:42;15.90;90.10
48994;DHT22;34804;49.214;12.276;2023-09-19T05:31:09;15.90;90.20
48994;DHT22;34804;49.214;12.276;2023-09-19T05:33:36;15.90;90.40
48994;DHT22;34804;49.214;12.276;2023-09-19T05:36:04;15.90;90.00
48994;DHT22;34804;49.214;12.276;2023-09-19T05:38:31;16.00;90.10
48994;DHT22;34804;49.214;12.276;2023-09-19T05:40:59;16.00;89.70
48994;DHT22;34804;49.214;12.276;2023-09-19T05:43:26;16.00;89.80
48994;DHT22;34804;49.214;12.276;2023-09-19T05:45:53;15.90;89.80
48994;DHT22;34804;49.214;12.276;2023-09-19T05:48:23;15.90;89.90
48994;DHT22;34804;49.214;12.276;2023-09-19T05:50:49;15.90;89.90
48994;DHT22;34804;49.214;12.276;2023-09-19T05:53:16;15.80;90.10
48994;DHT22;34804;49.214;12.276;2023-09-19T05:55:45;15.80;90.30
48994;DHT22;34804;49.214;12.276;2023-09-19T05:58:12;15.80;90.30
48994;DHT22;34804;49.214;12.276;2023-09-19T06:00:43;15.70;90.50
48994;DHT22;34804;49.214;12.276;2023-09-19T06:03:11;15.70;90.60
48994;DHT22;34804;49.214;12.276;2023-09-19T06:05:38;15.70;90.60
48994;DHT22;34804;49.214;12.276;2023-09-19T06:08:06;15.80;90.50
48994;DHT22;34804;49.214;12.276;2023-09-19T06:10:35;15.80;90.40
48994;DHT22;34804;49.214;12.276;2023-09-19T06:13:02;15.80;90.40
48994;DHT22;34804;49.214;12.276;2023-09-19T06:15:31;15.80;90.30
48994;DHT22;34804;49.214;12.276;2023-09-19T06:18:00;15.90;90.10
48994;DHT22;34804;49.214;12.276;2023-09-19T06:20:29;16.10;89.60
48994;DHT22;34804;49.214;12.276;2023-09-19T06:22:56;16.10;89.30
48994;DHT22;34804;49.214;12.276;2023-09-19T06:25:23;16.10;89.50
48994;DHT22;34804;49.214;12.276;2023-09-19T06:27:53;16.20;89.80
48994;DHT22;34804;49.214;12.276;2023-09-19T06:30:22;16.30;89.30
48994;DHT22;34804;49.214;12.276;2023-09-19T06:32:59;16.30;89.80
48994;DHT22;34804;49.214;12.276;2023-09-19T06:35:28;16.30;89.20
48994;DHT22;34804;49.214;12.276;2023-09-19T06:38:02;16.40;88.80
48994;DHT22;34804;49.214;12.276;2023-09-19T06:40:29;16.50;89.20
48994;DHT22;34804;49.214;12.276;2023-09-19T06:42:57;16.60;88.90
48994;DHT22;34804;49.214;12.276;2023-09-19T06:45:24;16.60;87.90
48994;DHT22;34804;49.214;12.276;2023-09-19T06:47:54;16.60;88.40
48994;DHT22;34804;49.214;12.276;2023-09-19T06:50:25;16.60;87.90
48994;DHT22;34804;49.214;12.276;2023-09-19T06:52:54;16.60;88.10
48994;DHT22;34804;49.214;12.276;2023-09-19T06:55:22;16.60;88.00
48994;DHT22;34804;49.214;12.276;2023-09-19T06:57:52;16.70;88.50
48994;DHT22;34804;49.214;12.276;2023-09-19T07:00:21;16.70;87.60
48994;DHT22;34804;49.214;12.276;2023-09-19T07:02:59;16.90;87.00
48994;DHT22;34804;49.214;12.276;2023-09-19T07:05:28;17.00;87.30
48994;DHT22;34804;49.214;12.276;2023-09-19T07:07:55;17.00;86.10
48994;DHT22;34804;49.214;12.276;2023-09-19T07:10:22;17.00;85.80
48994;DHT22;34804;49.214;12.276;2023-09-19T07:12:59;17.10;86.90
48994;DHT22;34804;49.214;12.276;2023-09-19T07:15:32;17.10;84.80
48994;DHT22;34804;49.214;12.276;2023-09-19T07:18:02;17.20;84.80
48994;DHT22;34804;49.214;12.276;2023-09-19T07:20:29;17.10;84.60
48994;DHT22;34804;49.214;12.276;2023-09-19T07:22:59;17.20;85.10
48994;DHT22;34804;49.214;12.276;2023-09-19T07:25:28;17.20;84.10
48994;DHT22;34804;49.214;12.276;2023-09-19T07:27:56;17.20;85.60
48994;DHT22;34804;49.214;12.276;2023-09-19T07:30:23;17.20;84.10
48994;DHT22;34804;49.214;12.276;2023-09-19T07:32:50;17.30;83.90
48994;DHT22;34804;49.214;12.276;2023-09-19T07:35:17;17.30;84.90
48994;DHT22;34804;49.214;12.276;2023-09-19T07:37:46;17.30;85.70
48994;DHT22;34804;49.214;12.276;2023-09-19T07:40:18;17.40;84.30
48994;DHT22;34804;49.214;12.276;2023-09-19T07:42:46;17.40;85.30
48994;DHT22;34804;49.214;12.276;2023-09-19T07:45:14;17.40;85.30
48994;DHT22;34804;49.214;12.276;2023-09-19T07:47:45;17.30;84.30
48994;DHT22;34804;49.214;12.276;2023-09-19T07:50:16;17.40;85.90
48994;DHT22;34804;49.214;12.276;2023-09-19T07:52:50;17.40;84.50
48994;DHT22;34804;49.214;12.276;2023-09-19T07:55:20;17.60;85.50
48994;DHT22;34804;49.214;12.276;2023-09-19T07:57:51;17.60;83.70
48994;DHT22;34804;49.214;12.276;2023-09-19T08:00:18;17.70;85.20
48994;DHT22;34804;49.214;12.276;2023-09-19T08:02:45;17.80;85.30
48994;DHT22;34804;49.214;12.276;2023-09-19T08:05:16;17.90;85.50
48994;DHT22;34804;49.214;12.276;2023-09-19T08:07:45;18.00;82.60
48994;DHT22;34804;49.214;12.276;2023-09-19T08:10:15;18.30;82.00
48994;DHT22;34804;49.214;12.276;2023-09-19T08:12:43;18.50;83.20
48994;DHT22;34804;49.214;12.276;2023-09-19T08:15:14;18.70;83.70
48994;DHT22;34804;49.214;12.276;2023-09-19T08:17:42;18.80;82.00
48994;DHT22;34804;49.214;12.276;2023-09-19T08:20:10;19.10;82.40
48994;DHT22;34804;49.214;12.276;2023-09-19T08:22:46;19.00;80.10
48994;DHT22;34804;49.214;12.276;2023-09-19T08:25:15;19.10;81.30
48994;DHT22;34804;49.214;12.276;2023-09-19T08:27:50;19.10;80.90
48994;DHT22;34804;49.214;12.276;2023-09-19T08:30:19;19.20;79.80
48994;DHT22;34804;49.214;12.276;2023-09-19T08:32:56;19.40;79.90
48994;DHT22;34804;49.214;12.276;2023-09-19T08:35:23;19.30;76.00
48994;DHT22;34804;49.214;12.276;2023-09-19T08:37:50;18.80;78.80
48994;DHT22;34804;49.214;12.276;2023-09-19T08:40:18;18.90;80.00
48994;DHT22;34804;49.214;12.276;2023-09-19T08:42:53;19.30;79.10
48994;DHT22;34804;49.214;12.276;2023-09-19T08:45:21;19.50;79.00
48994;DHT22;34804;49.214;12.276;2023-09-19T08:48:07;19.60;80.70
48994;DHT22;34804;49.214;12.276;2023-09-19T08:51:00;19.40;76.70
48994;DHT22;34804;49.214;12.276;2023-09-19T08:56:01;19.50;77.30
48994;DHT22;34804;49.214;12.276;2023-09-19T08:58:35;19.50;78.30
48994;DHT22;34804;49.214;12.276;2023-09-19T09:01:07;19.60;78.00
48994;DHT22;34804;49.214;12.276;2023-09-19T09:03:37;19.50;76.10
48994;DHT22;34804;49.214;12.276;2023-09-19T09:06:08;19.80;77.00
48994;DHT22;34804;49.214;12.276;2023-09-19T09:08:38;20.30;76.70
48994;DHT22;34804;49.214;12.276;2023-09-19T09:11:06;20.30;73.40
48994;DHT22;34804;49.214;12.276;2023-09-19T09:13:36;20.00;73.70
48994;DHT22;34804;49.214;12.276;2023-09-19T09:16:04;19.60;71.80
48994;DHT22;34804;49.214;12.276;2023-09-19T09:18:31;19.20;75.20
48994;DHT22;34804;49.214;12.276;2023-09-19T09:20:58;19.10;76.10
48994;DHT22;34804;49.214;12.276;2023-09-19T09:23:26;19.00;73.90
48994;DHT22;34804;49.214;12.276;2023-09-19T09:25:56;18.90;74.90
48994;DHT22;34804;49.214;12.276;2023-09-19T09:28:25;18.80;73.60
48994;DHT22;34804;49.214;12.276;2023-09-19T09:30:55;18.80;74.30
48994;DHT22;34804;49.214;12.276;2023-09-19T09:33:22;18.80;75.50
48994;DHT22;34804;49.214;12.276;2023-09-19T09:38:21;19.00;73.50
48994;DHT22;34804;49.214;12.276;2023-09-19T09:40:52;19.10;74.40
48994;DHT22;34804;49.214;12.276;2023-09-19T09:43:34;19.30;75.30
48994;DHT22;34804;49.214;12.276;2023-09-19T09:46:16;19.40;73.80
48994;DHT22;34804;49.214;12.276;2023-09-19T09:48:59;19.40;74.60
48994;DHT22;34804;49.214;12.276;2023-09-19T09:51:49;19.40;74.90
48994;DHT22;34804;49.214;12.276;2023-09-19T09:54:29;19.30;74.10
48994;DHT22;34804;49.214;12.276;2023-09-19T09:57:09;19.40;74.00
48994;DHT22;34804;49.214;12.276;2023-09-19T09:59:53;19.50;72.90
48994;DHT22;34804;49.214;12.276;2023-09-19T10:02:30;19.30;72.70
48994;DHT22;34804;49.214;12.276;2023-09-19T10:07:57;19.50;74.80
48994;DHT22;34804;49.214;12.276;2023-09-19T10:10:41;19.50;75.30
48994;DHT22;34804;49.214;12.276;2023-09-19T10:13:12;19.60;72.70
48994;DHT22;34804;49.214;12.276;2023-09-19T10:15:44;19.60;74.30
48994;DHT22;34804;49.214;12.276;2023-09-19T10:18:21;19.50;73.60
48994;DHT22;34804;49.214;12.276;2023-09-19T10:20:49;19.60;71.90
48994;DHT22;34804;49.214;12.276;2023-09-19T10:23:19;19.60;72.40
48994;DHT22;34804;49.214;12.276;2023-09-19T10:25:50;19.80;73.20
48994;DHT22;34804;49.214;12.276;2023-09-19T10:28:20;20.00;70.90
48994;DHT22;34804;49.214;12.276;2023-09-19T10:30:51;20.10;68.90
48994;DHT22;34804;49.214;12.276;2023-09-19T10:33:24;20.00;70.40
48994;DHT22;34804;49.214;12.276;2023-09-19T10:35:54;20.20;71.10
48994;DHT22;34804;49.214;12.276;2023-09-19T10:38:24;20.30;69.00
48994;DHT22;34804;49.214;12.276;2023-09-19T10:40:53;20.50;70.00
48994;DHT22;34804;49.214;12.276;2023-09-19T10:43:22;20.80;66.90
48994;DHT22;34804;49.214;12.276;2023-09-19T10:45:53;21.10;66.00
48994;DHT22;34804;49.214;12.276;2023-09-19T10:48:21;21.30;66.80
48994;DHT22;34804;49.214;12.276;2023-09-19T10:51:12;21.90;68.40
48994;DHT22;34804;49.214;12.276;2023-09-19T10:53:47;22.00;59.10
48994;DHT22;34804;49.214;12.276;2023-09-19T10:56:21;22.30;61.20
48994;DHT22;34804;49.214;12.276;2023-09-19T10:58:50;22.10;61.70
48994;DHT22;34804;49.214;12.276;2023-09-19T11:01:19;21.70;59.70
48994;DHT22;34804;49.214;12.276;2023-09-19T11:03:47;21.40;62.50
48994;DHT22;34804;49.214;12.276;2023-09-19T11:06:17;21.10;62.10
48994;DHT22;34804;49.214;12.276;2023-09-19T11:08:56;20.80;63.50
48994;DHT22;34804;49.214;12.276;2023-09-19T11:30:41;21.70;63.00
48994;DHT22;34804;49.214;12.276;2023-09-19T11:33:22;21.80;61.60
48994;DHT22;34804;49.214;12.276;2023-09-19T11:36:04;21.80;60.30
48994;DHT22;34804;49.214;12.276;2023-09-19T11:41:37;21.80;61.80
48994;DHT22;34804;49.214;12.276;2023-09-19T11:46:53;22.00;61.20
48994;DHT22;34804;49.214;12.276;2023-09-19T11:49:40;22.30;60.10
48994;DHT22;34804;49.214;12.276;2023-09-19T11:52:07;21.90;61.60
48994;DHT22;34804;49.214;12.276;2023-09-19T11:54:36;21.90;61.20
48994;DHT22;34804;49.214;12.276;2023-09-19T11:57:07;21.80;59.70
48994;DHT22;34804;49.214;12.276;2023-09-19T11:59:38;21.70;61.60
48994;DHT22;34804;49.214;12.276;2023-09-19T12:02:06;21.60;59.80
48994;DHT22;34804;49.214;12.276;2023-09-19T12:04:43;21.60;60.30
48994;DHT22;34804;49.214;12.276;2023-09-19T12:07:13;21.80;61.00
48994;DHT22;34804;49.214;12.276;2023-09-19T12:10:03;22.00;63.40
48994;DHT22;34804;49.214;12.276;2023-09-19T12:12:31;22.40;58.80
48994;DHT22;34804;49.214;12.276;2023-09-19T12:15:00;22.50;57.40
48994;DHT22;34804;49.214;12.276;2023-09-19T12:17:38;22.90;56.90
48994;DHT22;34804;49.214;12.276;2023-09-19T12:20:10;23.30;56.50
48994;DHT22;34804;49.214;12.276;2023-09-19T12:22:44;23.80;56.60
48994;DHT22;34804;49.214;12.276;2023-09-19T12:25:11;23.30;53.90
48994;DHT22;34804;49.214;12.276;2023-09-19T12:27:49;23.20;54.90
48994;DHT22;34804;49.214;12.276;2023-09-19T12:30:27;22.90;55.60
48994;DHT22;34804;49.214;12.276;2023-09-19T12:32:55;23.50;53.20
48994;DHT22;34804;49.214;12.276;2023-09-19T12:35:29;24.00;51.90
48994;DHT22;34804;49.214;12.276;2023-09-19T12:38:03;23.30;53.70
48994;DHT22;34804;49.214;12.276;2023-09-19T12:40:31;22.20;56.80
48994;DHT22;34804;49.214;12.276;2023-09-19T12:43:00;21.90;60.30
48994;DHT22;34804;49.214;12.276;2023-09-19T12:45:31;22.40;59.30
48994;DHT22;34804;49.214;12.276;2023-09-19T12:48:24;23.40;56.00
48994;DHT22;34804;49.214;12.276;2023-09-19T12:51:09;24.00;53.30
48994;DHT22;34804;49.214;12.276;2023-09-19T12:53:45;24.20;54.20
48994;DHT22;34804;49.214;12.276;2023-09-19T12:56:17;24.20;56.00
48994;DHT22;34804;49.214;12.276;2023-09-19T12:58:53;24.10;54.70
48994;DHT22;34804;49.214;12.276;2023-09-19T13:01:24;24.50;56.10
48994;DHT22;34804;49.214;12.276;2023-09-19T13:04:18;25.60;49.00
48994;DHT22;34804;49.214;12.276;2023-09-19T13:06:48;25.40;48.10
48994;DHT22;34804;49.214;12.276;2023-09-19T13:09:17;24.90;51.00
48994;DHT22;34804;49.214;12.276;2023-09-19T13:11:44;25.00;51.90
48994;DHT22;34804;49.214;12.276;2023-09-19T13:17:02;26.60;49.90
48994;DHT22;34804;49.214;12.276;2023-09-19T13:19:42;26.20;48.50
48994;DHT22;34804;49.214;12.276;2023-09-19T13:25:28;26.90;44.20
48994;DHT22;34804;49.214;12.276;2023-09-19T13:27:57;27.70;43.50
48994;DHT22;34804;49.214;12.276;2023-09-19T13:30:26;27.30;45.60
48994;DHT22;34804;49.214;12.276;2023-09-19T13:33:08;27.40;45.20
48994;DHT22;34804;49.214;12.276;2023-09-19T13:35:37;28.10;45.50
48994;DHT22;34804;49.214;12.276;2023-09-19T13:38:07;27.90;40.40
48994;DHT22;34804;49.214;12.276;2023-09-19T13:40:38;26.80;44.00
48994;DHT22;34804;49.214;12.276;2023-09-19T13:43:08;26.80;44.20
48994;DHT22;34804;49.214;12.276;2023-09-19T13:45:35;26.60;44.50
48994;DHT22;34804;49.214;12.276;2023-09-19T13:48:03;26.90;42.50
48994;DHT22;34804;49.214;12.276;2023-09-19T13:50:30;26.80;43.60
48994;DHT22;34804;49.214;12.276;2023-09-19T13:52:58;27.10;43.90
48994;DHT22;34804;49.214;12.276;2023-09-19T13:55:28;27.50;41.20
48994;DHT22;34804;49.214;12.276;2023-09-19T13:57:54;27.10;41.90
48994;DHT22;34804;49.214;12.276;2023-09-19T14:00:22;26.90;42.70
48994;DHT22;34804;49.214;12.276;2023-09-19T14:02:49;26.90;43.00
48994;DHT22;34804;49.214;12.276;2023-09-19T14:05:18;27.10;42.80
48994;DHT22;34804;49.214;12.276;2023-09-19T14:07:47;27.70;42.20
48994;DHT22;34804;49.214;12.276;2023-09-19T14:10:14;28.10;40.80
48994;DHT22;34804;49.214;12.276;2023-09-19T14:12:44;28.50;40.30
48994;DHT22;34804;49.214;12.276;2023-09-19T14:15:11;28.90;39.30
48994;DHT22;34804;49.214;12.276;2023-09-19T14:17:39;29.20;39.60
48994;DHT22;34804;49.214;12.276;2023-09-19T14:20:09;28.20;39.00
48994;DHT22;34804;49.214;12.276;2023-09-19T14:22:37;26.80;41.20
48994;DHT22;34804;49.214;12.276;2023-09-19T14:25:05;25.40;44.50
48994;DHT22;34804;49.214;12.276;2023-09-19T14:27:32;24.50;46.30
48994;DHT22;34804;49.214;12.276;2023-09-19T14:29:59;24.90;48.30
48994;DHT22;34804;49.214;12.276;2023-09-19T14:32:25;26.10;46.40
48994;DHT22;34804;49.214;12.276;2023-09-19T14:34:52;27.20;43.30
48994;DHT22;34804;49.214;12.276;2023-09-19T14:37:19;28.20;40.10
48994;DHT22;34804;49.214;12.276;2023-09-19T14:39:49;28.50;40.20
48994;DHT22;34804;49.214;12.276;2023-09-19T14:42:16;28.40;39.40
48994;DHT22;34804;49.214;12.276;2023-09-19T14:44:44;26.10;41.70
48994;DHT22;34804;49.214;12.276;2023-09-19T14:47:11;25.20;46.30
48994;DHT22;34804;49.214;12.276;2023-09-19T14:49:40;25.60;44.00
48994;DHT22;34804;49.214;12.276;2023-09-19T14:52:08;25.00;46.50
48994;DHT22;34804;49.214;12.276;2023-09-19T14:54:36;24.00;48.50
48994;DHT22;34804;49.214;12.276;2023-09-19T14:57:08;24.10;48.80
48994;DHT22;34804;49.214;12.276;2023-09-19T14:59:36;24.30;46.90
48994;DHT22;34804;49.214;12.276;2023-09-19T15:02:06;24.40;46.50
48994;DHT22;34804;49.214;12.276;2023-09-19T15:04:34;23.70;48.10
48994;DHT22;34804;49.214;12.276;2023-09-19T15:07:01;24.40;46.20
48994;DHT22;34804;49.214;12.276;2023-09-19T15:09:29;24.60;45.50
48994;DHT22;34804;49.214;12.276;2023-09-19T15:11:58;24.70;46.30
48994;DHT22;34804;49.214;12.276;2023-09-19T15:14:25;26.30;44.40
48994;DHT22;34804;49.214;12.276;2023-09-19T15:16:52;27.20;41.20
48994;DHT22;34804;49.214;12.276;2023-09-19T15:19:19;27.50;40.60
48994;DHT22;34804;49.214;12.276;2023-09-19T15:21:46;27.60;40.10
48994;DHT22;34804;49.214;12.276;2023-09-19T15:24:13;27.20;42.50
48994;DHT22;34804;49.214;12.276;2023-09-19T15:26:41;27.50;40.50
48994;DHT22;34804;49.214;12.276;2023-09-19T15:29:10;27.30;41.80
48994;DHT22;34804;49.214;12.276;2023-09-19T15:31:37;26.80;42.70
48994;DHT22;34804;49.214;12.276;2023-09-19T15:34:05;27.60;42.60
48994;DHT22;34804;49.214;12.276;2023-09-19T15:36:34;28.20;40.10
48994;DHT22;34804;49.214;12.276;2023-09-19T15:39:06;28.40;38.90
48994;DHT22;34804;49.214;12.276;2023-09-19T15:41:42;28.80;38.70
48994;DHT22;34804;49.214;12.276;2023-09-19T15:44:20;28.30;39.30
48994;DHT22;34804;49.214;12.276;2023-09-19T15:46:47;27.70;40.40
48994;DHT22;34804;49.214;12.276;2023-09-19T15:49:15;26.80;42.20
48994;DHT22;34804;49.214;12.276;2023-09-19T15:51:42;26.10;44.20
48994;DHT22;34804;49.214;12.276;2023-09-19T15:54:14;25.80;43.70
48994;DHT22;34804;49.214;12.276;2023-09-19T15:56:42;26.10;43.70
48994;DHT22;34804;49.214;12.276;2023-09-19T15:59:10;26.30;43.70
48994;DHT22;34804;49.214;12.276;2023-09-19T16:01:39;26.10;44.30
48994;DHT22;34804;49.214;12.276;2023-09-19T16:04:11;26.10;43.40
48994;DHT22;34804;49.214;12.276;2023-09-19T16:06:39;25.70;43.90
48994;DHT22;34804;49.214;12.276;2023-09-19T16:09:08;25.50;43.60
48994;DHT22;34804;49.214;12.276;2023-09-19T16:11:35;25.10;45.60
48994;DHT22;34804;49.214;12.276;2023-09-19T16:14:03;24.70;45.10
48994;DHT22;34804;49.214;12.276;2023-09-19T16:16:31;24.00;46.40
48994;DHT22;34804;49.214;12.276;2023-09-19T16:19:01;23.30;49.70